Chadron Municipal Airport
KCDR : now visible

Airfield :











YOU CAN JOIN US ON...

 
LOGIN :

Register | Disclaimer

   EN    FR    IT 

 









Legend :    VFR   Marginal VFR   IFR   Intensive IFR   Very Intensive IFR
Visi :
Ceiling :
>= 8 km
>= 3000ft
5 to 8 km
1000 to 3000 ft
1500m to 5 km
500 to 1000 ft
800 to 1500m
200 to 500 ft
< 800m
< 200 ft
Symbols :   Thunderstorms  Fog  Heavy snow  Heavy precipitations  Wind > 20 kt






- Airport Elevation : 3297 ft


KCDR - Chadron Municipal

CURRENT METAR :
  • 280553Z AUTO 00000KT 10SM CLR M19/M21 A3005 RMK AO2 SLP255 T11891211 11106 21189 50007

EXPIRED METARs :
  • 280453Z AUTO 00000KT 10SM CLR M17/M18 A3005 RMK AO2 SLP252 T11671183
  • 280353Z AUTO 25006KT 10SM CLR M17/M19 A3004 RMK AO2 SLP249 T11721189
  • 280253Z AUTO 00000KT 10SM CLR M13/M16 A3003 RMK AO2 SLP239 T11331161 51022
  • 280153Z AUTO 07004KT 10SM BKN100 M12/M16 A3001 RMK AO2 SLP229 T11221156

TAF KCDR
Valid from the 28 at 06:00 until the 29 at 06:00 UTC


280525Z 2806/2906 VRB05KT P6SM SCT080 BKN100
FM281700 26010G18KT P6SM SKC
FM282300 24008KT P6SM SKC
KZDV FIR / North America



MET'MAP, your aeronautical weather chart ! - Copyright ORBIFLY December 2007 - Disclaimer

ORBIFLY MET'MAP TEAM :

Programming & Development : Alexandra Zaïnal
Original concept : Baudouin d'Aumeries
Technical & hardware support : Manuel Goepfert
Assistance : Marc-Olivier Méhu




SOURCES & CREDITS :

   NOAA       Earth
Advisory